sensor_id;sensor_type;location;lat;lon;timestamp;temperature;humidity
60242;SHT30;46103;52.076;113.488;2024-02-26T00:01:13;-22.58;56.79
60242;SHT30;46103;52.076;113.488;2024-02-26T00:04:17;-22.50;56.40
60242;SHT30;46103;52.076;113.488;2024-02-26T00:07:21;-22.37;56.02
60242;SHT30;46103;52.076;113.488;2024-02-26T00:10:25;-22.51;55.90
60242;SHT30;46103;52.076;113.488;2024-02-26T00:13:29;-22.43;56.35
60242;SHT30;46103;52.076;113.488;2024-02-26T00:16:33;-22.32;56.60
60242;SHT30;46103;52.076;113.488;2024-02-26T00:19:36;-22.26;56.79
60242;SHT30;46103;52.076;113.488;2024-02-26T00:22:41;-22.25;56.71
60242;SHT30;46103;52.076;113.488;2024-02-26T00:25:45;-22.08;56.60
60242;SHT30;46103;52.076;113.488;2024-02-26T00:28:56;-21.93;55.79
60242;SHT30;46103;52.076;113.488;2024-02-26T00:33:22;-21.83;53.89
60242;SHT30;46103;52.076;113.488;2024-02-26T00:36:37;-21.78;53.17
60242;SHT30;46103;52.076;113.488;2024-02-26T02:22:27;-17.49;48.69
60242;SHT30;46103;52.076;113.488;2024-02-26T02:26:27;-17.11;48.74
60242;SHT30;46103;52.076;113.488;2024-02-26T03:01:55;-16.38;49.06
60242;SHT30;46103;52.076;113.488;2024-02-26T03:05:14;-16.27;49.24
60242;SHT30;46103;52.076;113.488;2024-02-26T03:09:01;-16.14;48.95
60242;SHT30;46103;52.076;113.488;2024-02-26T05:32:59;-9.08;37.79
60242;SHT30;46103;52.076;113.488;2024-02-26T05:36:18;-9.18;37.29
60242;SHT30;46103;52.076;113.488;2024-02-26T05:39:24;-8.98;37.72
60242;SHT30;46103;52.076;113.488;2024-02-26T05:42:41;-9.07;36.76
60242;SHT30;46103;52.076;113.488;2024-02-26T05:45:47;-9.09;37.67
60242;SHT30;46103;52.076;113.488;2024-02-26T05:48:53;-9.02;37.03
60242;SHT30;46103;52.076;113.488;2024-02-26T05:51:58;-8.93;36.98
60242;SHT30;46103;52.076;113.488;2024-02-26T05:55:01;-8.85;36.13
60242;SHT30;46103;52.076;113.488;2024-02-26T05:58:13;-8.79;36.18
60242;SHT30;46103;52.076;113.488;2024-02-26T06:02:06;-8.74;35.74
60242;SHT30;46103;52.076;113.488;2024-02-26T06:10:30;-8.45;35.60
60242;SHT30;46103;52.076;113.488;2024-02-26T06:13:35;-8.40;34.86
60242;SHT30;46103;52.076;113.488;2024-02-26T06:16:42;-8.36;33.98
60242;SHT30;46103;52.076;113.488;2024-02-26T06:19:52;-8.36;34.45
60242;SHT30;46103;52.076;113.488;2024-02-26T06:22:55;-8.29;34.33
60242;SHT30;46103;52.076;113.488;2024-02-26T06:25:59;-8.33;33.61
60242;SHT30;46103;52.076;113.488;2024-02-26T06:29:02;-8.08;33.92
60242;SHT30;46103;52.076;113.488;2024-02-26T06:32:11;-7.94;33.25
60242;SHT30;46103;52.076;113.488;2024-02-26T06:35:24;-7.81;32.97
60242;SHT30;46103;52.076;113.488;2024-02-26T06:38:27;-7.81;32.47
60242;SHT30;46103;52.076;113.488;2024-02-26T06:41:33;-7.56;32.56
60242;SHT30;46103;52.076;113.488;2024-02-26T06:44:48;-7.67;32.06
60242;SHT30;46103;52.076;113.488;2024-02-26T06:48:27;-7.60;32.47
60242;SHT30;46103;52.076;113.488;2024-02-26T06:51:31;-7.43;32.41
60242;SHT30;46103;52.076;113.488;2024-02-26T06:54:35;-7.25;32.14
60242;SHT30;46103;52.076;113.488;2024-02-26T06:57:38;-7.08;31.31
60242;SHT30;46103;52.076;113.488;2024-02-26T07:00:42;-7.01;31.20
60242;SHT30;46103;52.076;113.488;2024-02-26T07:03:45;-6.95;30.67
60242;SHT30;46103;52.076;113.488;2024-02-26T07:06:49;-6.87;30.69
60242;SHT30;46103;52.076;113.488;2024-02-26T07:09:55;-7.12;30.33
60242;SHT30;46103;52.076;113.488;2024-02-26T07:12:59;-6.91;31.36
60242;SHT30;46103;52.076;113.488;2024-02-26T07:16:04;-6.62;31.03
60242;SHT30;46103;52.076;113.488;2024-02-26T07:19:08;-6.69;30.42
60242;SHT30;46103;52.076;113.488;2024-02-26T07:22:11;-6.84;30.16
60242;SHT30;46103;52.076;113.488;2024-02-26T07:25:15;-6.97;30.16
60242;SHT30;46103;52.076;113.488;2024-02-26T07:28:19;-6.98;30.17
60242;SHT30;46103;52.076;113.488;2024-02-26T07:31:23;-6.70;30.16
60242;SHT30;46103;52.076;113.488;2024-02-26T07:34:27;-6.43;29.97
60242;SHT30;46103;52.076;113.488;2024-02-26T07:37:33;-6.26;29.93
60242;SHT30;46103;52.076;113.488;2024-02-26T07:40:36;-6.18;28.45
60242;SHT30;46103;52.076;113.488;2024-02-26T07:43:52;-6.39;28.70
60242;SHT30;46103;52.076;113.488;2024-02-26T07:46:55;-6.36;29.10
60242;SHT30;46103;52.076;113.488;2024-02-26T07:50:00;-6.47;27.75
60242;SHT30;46103;52.076;113.488;2024-02-26T07:53:04;-6.26;28.18
60242;SHT30;46103;52.076;113.488;2024-02-26T07:56:08;-6.19;27.41
60242;SHT30;46103;52.076;113.488;2024-02-26T07:59:12;-6.02;27.14
60242;SHT30;46103;52.076;113.488;2024-02-26T08:02:17;-5.94;26.77
60242;SHT30;46103;52.076;113.488;2024-02-26T08:05:21;-5.69;25.65
60242;SHT30;46103;52.076;113.488;2024-02-26T08:08:25;-5.53;25.71
60242;SHT30;46103;52.076;113.488;2024-02-26T08:11:29;-5.67;25.37
60242;SHT30;46103;52.076;113.488;2024-02-26T08:14:32;-5.08;24.88
60242;SHT30;46103;52.076;113.488;2024-02-26T08:26:10;-4.77;23.36
60242;SHT30;46103;52.076;113.488;2024-02-26T08:29:14;-4.74;23.33
60242;SHT30;46103;52.076;113.488;2024-02-26T08:32:18;-4.35;24.62
60242;SHT30;46103;52.076;113.488;2024-02-26T08:35:21;-4.25;23.66
60242;SHT30;46103;52.076;113.488;2024-02-26T08:38:25;-4.24;24.22
60242;SHT30;46103;52.076;113.488;2024-02-26T08:41:28;-4.72;24.76
60242;SHT30;46103;52.076;113.488;2024-02-26T08:44:32;-4.74;25.93
60242;SHT30;46103;52.076;113.488;2024-02-26T08:47:36;-4.67;25.75
60242;SHT30;46103;52.076;113.488;2024-02-26T08:50:40;-5.03;26.03
60242;SHT30;46103;52.076;113.488;2024-02-26T08:53:44;-4.76;26.63
60242;SHT30;46103;52.076;113.488;2024-02-26T08:56:48;-5.09;26.68
60242;SHT30;46103;52.076;113.488;2024-02-26T08:59:51;-5.38;26.69
60242;SHT30;46103;52.076;113.488;2024-02-26T09:02:55;-5.46;27.01
60242;SHT30;46103;52.076;113.488;2024-02-26T09:05:57;-5.46;27.33
60242;SHT30;46103;52.076;113.488;2024-02-26T09:09:01;-5.43;27.60
60242;SHT30;46103;52.076;113.488;2024-02-26T09:12:07;-5.64;27.29
60242;SHT30;46103;52.076;113.488;2024-02-26T09:15:11;-6.02;27.34
60242;SHT30;46103;52.076;113.488;2024-02-26T09:18:16;-6.33;27.91
60242;SHT30;46103;52.076;113.488;2024-02-26T09:21:18;-6.45;28.61
60242;SHT30;46103;52.076;113.488;2024-02-26T09:24:26;-6.56;28.63
60242;SHT30;46103;52.076;113.488;2024-02-26T09:27:29;-6.67;28.76
60242;SHT30;46103;52.076;113.488;2024-02-26T09:30:33;-7.14;28.90
60242;SHT30;46103;52.076;113.488;2024-02-26T09:33:37;-7.36;29.78
60242;SHT30;46103;52.076;113.488;2024-02-26T09:53:20;-9.16;32.50
60242;SHT30;46103;52.076;113.488;2024-02-26T09:56:28;-9.43;32.83
60242;SHT30;46103;52.076;113.488;2024-02-26T10:23:13;-11.00;35.37
60242;SHT30;46103;52.076;113.488;2024-02-26T10:26:23;-11.11;35.37
60242;SHT30;46103;52.076;113.488;2024-02-26T10:36:48;-11.32;35.90
60242;SHT30;46103;52.076;113.488;2024-02-26T10:40:24;-11.42;35.97
60242;SHT30;46103;52.076;113.488;2024-02-26T10:43:28;-11.52;36.01
60242;SHT30;46103;52.076;113.488;2024-02-26T10:46:31;-11.56;36.31
60242;SHT30;46103;52.076;113.488;2024-02-26T10:49:35;-11.61;36.24
60242;SHT30;46103;52.076;113.488;2024-02-26T10:52:42;-11.67;36.42
60242;SHT30;46103;52.076;113.488;2024-02-26T10:56:02;-11.73;36.25
60242;SHT30;46103;52.076;113.488;2024-02-26T10:59:07;-11.78;36.29
60242;SHT30;46103;52.076;113.488;2024-02-26T11:02:20;-11.85;36.63
60242;SHT30;46103;52.076;113.488;2024-02-26T11:05:25;-11.94;36.78
60242;SHT30;46103;52.076;113.488;2024-02-26T11:08:37;-12.09;37.62
60242;SHT30;46103;52.076;113.488;2024-02-26T11:11:42;-12.25;37.90
60242;SHT30;46103;52.076;113.488;2024-02-26T11:14:57;-12.39;38.06
60242;SHT30;46103;52.076;113.488;2024-02-26T11:18:10;-12.45;38.27
60242;SHT30;46103;52.076;113.488;2024-02-26T11:21:38;-12.47;38.20
60242;SHT30;46103;52.076;113.488;2024-02-26T11:24:49;-12.49;38.11
60242;SHT30;46103;52.076;113.488;2024-02-26T11:28:04;-12.53;37.94
60242;SHT30;46103;52.076;113.488;2024-02-26T11:31:14;-12.61;38.35
60242;SHT30;46103;52.076;113.488;2024-02-26T11:34:26;-12.73;38.41
60242;SHT30;46103;52.076;113.488;2024-02-26T11:37:31;-12.70;38.28
60242;SHT30;46103;52.076;113.488;2024-02-26T11:40:41;-12.73;38.40
60242;SHT30;46103;52.076;113.488;2024-02-26T11:44:00;-12.91;38.85
60242;SHT30;46103;52.076;113.488;2024-02-26T11:47:18;-13.12;39.53
60242;SHT30;46103;52.076;113.488;2024-02-26T11:50:38;-13.27;40.02
60242;SHT30;46103;52.076;113.488;2024-02-26T11:53:48;-13.25;39.95
60242;SHT30;46103;52.076;113.488;2024-02-26T11:56:51;-13.27;39.95
60242;SHT30;46103;52.076;113.488;2024-02-26T12:03:11;-13.20;39.63
60242;SHT30;46103;52.076;113.488;2024-02-26T12:10:44;-13.44;40.38
60242;SHT30;46103;52.076;113.488;2024-02-26T12:13:58;-13.46;40.45
60242;SHT30;46103;52.076;113.488;2024-02-26T12:44:32;-13.47;40.34
60242;SHT30;46103;52.076;113.488;2024-02-26T12:47:38;-13.47;40.41
60242;SHT30;46103;52.076;113.488;2024-02-26T12:50:52;-13.46;40.52
60242;SHT30;46103;52.076;113.488;2024-02-26T12:53:55;-13.47;40.61
60242;SHT30;46103;52.076;113.488;2024-02-26T12:57:04;-13.46;40.79
60242;SHT30;46103;52.076;113.488;2024-02-26T13:00:13;-13.44;40.89
60242;SHT30;46103;52.076;113.488;2024-02-26T13:03:20;-13.46;40.80
60242;SHT30;46103;52.076;113.488;2024-02-26T13:06:24;-13.70;41.47
60242;SHT30;46103;52.076;113.488;2024-02-26T13:09:32;-13.77;42.70
60242;SHT30;46103;52.076;113.488;2024-02-26T13:12:43;-13.88;42.56
60242;SHT30;46103;52.076;113.488;2024-02-26T13:15:47;-14.02;42.95
60242;SHT30;46103;52.076;113.488;2024-02-26T13:18:51;-14.09;43.50
60242;SHT30;46103;52.076;113.488;2024-02-26T13:21:55;-14.25;43.85
60242;SHT30;46103;52.076;113.488;2024-02-26T13:24:59;-14.36;43.93
60242;SHT30;46103;52.076;113.488;2024-02-26T13:28:07;-14.47;43.93
60242;SHT30;46103;52.076;113.488;2024-02-26T13:31:12;-14.58;43.64
60242;SHT30;46103;52.076;113.488;2024-02-26T13:34:26;-14.69;45.56
60242;SHT30;46103;52.076;113.488;2024-02-26T13:37:31;-14.67;45.75
60242;SHT30;46103;52.076;113.488;2024-02-26T13:40:37;-14.68;45.01
60242;SHT30;46103;52.076;113.488;2024-02-26T13:43:44;-14.74;44.73
60242;SHT30;46103;52.076;113.488;2024-02-26T13:46:50;-14.69;44.49
60242;SHT30;46103;52.076;113.488;2024-02-26T13:49:53;-14.77;45.02
60242;SHT30;46103;52.076;113.488;2024-02-26T14:01:16;-14.99;45.61
60242;SHT30;46103;52.076;113.488;2024-02-26T14:04:20;-15.10;45.96
60242;SHT30;46103;52.076;113.488;2024-02-26T14:07:24;-15.26;45.50
60242;SHT30;46103;52.076;113.488;2024-02-26T14:10:28;-15.61;45.52
60242;SHT30;46103;52.076;113.488;2024-02-26T14:13:31;-15.69;46.21
60242;SHT30;46103;52.076;113.488;2024-02-26T14:16:39;-15.74;46.56
60242;SHT30;46103;52.076;113.488;2024-02-26T14:19:42;-15.86;46.85
60242;SHT30;46103;52.076;113.488;2024-02-26T14:22:51;-15.90;47.12
60242;SHT30;46103;52.076;113.488;2024-02-26T14:25:57;-15.95;47.55
60242;SHT30;46103;52.076;113.488;2024-02-26T14:29:01;-15.96;47.53
60242;SHT30;46103;52.076;113.488;2024-02-26T14:32:05;-16.06;47.30
60242;SHT30;46103;52.076;113.488;2024-02-26T14:35:10;-16.12;47.46
60242;SHT30;46103;52.076;113.488;2024-02-26T14:38:19;-16.14;47.81
60242;SHT30;46103;52.076;113.488;2024-02-26T14:41:22;-16.13;48.18
60242;SHT30;46103;52.076;113.488;2024-02-26T14:44:26;-16.09;48.54
60242;SHT30;46103;52.076;113.488;2024-02-26T14:47:30;-16.10;48.07
60242;SHT30;46103;52.076;113.488;2024-02-26T14:50:34;-16.14;47.87
60242;SHT30;46103;52.076;113.488;2024-02-26T14:53:37;-16.21;47.85
60242;SHT30;46103;52.076;113.488;2024-02-26T14:56:41;-16.24;47.92
60242;SHT30;46103;52.076;113.488;2024-02-26T14:59:45;-16.31;47.98
60242;SHT30;46103;52.076;113.488;2024-02-26T15:02:48;-16.35;48.29
60242;SHT30;46103;52.076;113.488;2024-02-26T15:05:52;-16.46;48.17
60242;SHT30;46103;52.076;113.488;2024-02-26T15:08:56;-16.52;48.33
60242;SHT30;46103;52.076;113.488;2024-02-26T15:12:00;-16.52;48.25
60242;SHT30;46103;52.076;113.488;2024-02-26T15:15:04;-16.53;48.41
60242;SHT30;46103;52.076;113.488;2024-02-26T15:18:08;-16.59;48.37
60242;SHT30;46103;52.076;113.488;2024-02-26T15:21:15;-16.59;48.12
60242;SHT30;46103;52.076;113.488;2024-02-26T15:24:19;-16.68;48.49
60242;SHT30;46103;52.076;113.488;2024-02-26T15:27:22;-16.75;48.42
60242;SHT30;46103;52.076;113.488;2024-02-26T15:30:27;-16.82;49.17
60242;SHT30;46103;52.076;113.488;2024-02-26T15:33:33;-16.80;49.09
60242;SHT30;46103;52.076;113.488;2024-02-26T15:36:37;-16.89;49.02
60242;SHT30;46103;52.076;113.488;2024-02-26T15:39:41;-16.93;49.21
60242;SHT30;46103;52.076;113.488;2024-02-26T15:42:48;-17.07;49.16
60242;SHT30;46103;52.076;113.488;2024-02-26T15:45:51;-17.16;49.16
60242;SHT30;46103;52.076;113.488;2024-02-26T15:48:56;-17.14;49.08
60242;SHT30;46103;52.076;113.488;2024-02-26T15:52:01;-17.20;49.24
60242;SHT30;46103;52.076;113.488;2024-02-26T15:55:05;-17.16;49.40
60242;SHT30;46103;52.076;113.488;2024-02-26T15:58:09;-17.18;49.68
60242;SHT30;46103;52.076;113.488;2024-02-26T16:01:14;-17.21;49.78
60242;SHT30;46103;52.076;113.488;2024-02-26T16:04:27;-17.30;49.71
60242;SHT30;46103;52.076;113.488;2024-02-26T16:07:36;-17.31;49.89
60242;SHT30;46103;52.076;113.488;2024-02-26T16:10:40;-17.30;49.86
60242;SHT30;46103;52.076;113.488;2024-02-26T16:13:44;-17.37;49.73
60242;SHT30;46103;52.076;113.488;2024-02-26T16:16:54;-17.31;50.19
60242;SHT30;46103;52.076;113.488;2024-02-26T16:20:00;-17.34;50.52
60242;SHT30;46103;52.076;113.488;2024-02-26T16:23:07;-17.31;50.41
60242;SHT30;46103;52.076;113.488;2024-02-26T16:26:12;-17.31;50.20
60242;SHT30;46103;52.076;113.488;2024-02-26T16:29:16;-17.41;50.26
60242;SHT30;46103;52.076;113.488;2024-02-26T16:32:20;-17.55;50.20
60242;SHT30;46103;52.076;113.488;2024-02-26T16:35:23;-17.59;50.28
60242;SHT30;46103;52.076;113.488;2024-02-26T16:38:27;-17.58;50.10
60242;SHT30;46103;52.076;113.488;2024-02-26T16:41:34;-17.75;50.07
60242;SHT30;46103;52.076;113.488;2024-02-26T16:44:39;-17.82;50.34
60242;SHT30;46103;52.076;113.488;2024-02-26T16:47:42;-17.85;50.37
60242;SHT30;46103;52.076;113.488;2024-02-26T16:50:47;-17.83;50.53
60242;SHT30;46103;52.076;113.488;2024-02-26T16:53:52;-17.87;50.61
60242;SHT30;46103;52.076;113.488;2024-02-26T16:56:56;-17.93;50.47
60242;SHT30;46103;52.076;113.488;2024-02-26T17:00:00;-18.00;50.83
60242;SHT30;46103;52.076;113.488;2024-02-26T17:03:04;-18.06;51.08
60242;SHT30;46103;52.076;113.488;2024-02-26T17:06:09;-18.13;51.34
60242;SHT30;46103;52.076;113.488;2024-02-26T17:09:13;-18.22;51.63
60242;SHT30;46103;52.076;113.488;2024-02-26T17:12:17;-18.29;51.57
60242;SHT30;46103;52.076;113.488;2024-02-26T17:15:21;-18.38;51.53
60242;SHT30;46103;52.076;113.488;2024-02-26T17:18:25;-18.55;51.71
60242;SHT30;46103;52.076;113.488;2024-02-26T17:21:28;-18.79;52.49
60242;SHT30;46103;52.076;113.488;2024-02-26T17:24:32;-18.93;52.32
60242;SHT30;46103;52.076;113.488;2024-02-26T17:27:37;-18.95;52.81
60242;SHT30;46103;52.076;113.488;2024-02-26T17:30:41;-19.15;53.16
60242;SHT30;46103;52.076;113.488;2024-02-26T17:33:44;-19.31;53.58
60242;SHT30;46103;52.076;113.488;2024-02-26T17:36:49;-19.40;53.77
60242;SHT30;46103;52.076;113.488;2024-02-26T17:39:54;-19.40;53.76
60242;SHT30;46103;52.076;113.488;2024-02-26T17:42:58;-19.39;54.02
60242;SHT30;46103;52.076;113.488;2024-02-26T17:46:03;-19.38;53.89
60242;SHT30;46103;52.076;113.488;2024-02-26T17:49:06;-19.40;53.58
60242;SHT30;46103;52.076;113.488;2024-02-26T17:52:11;-19.49;53.67
60242;SHT30;46103;52.076;113.488;2024-02-26T17:55:16;-19.50;53.98
60242;SHT30;46103;52.076;113.488;2024-02-26T17:58:21;-19.65;53.86
60242;SHT30;46103;52.076;113.488;2024-02-26T18:01:25;-19.65;53.99
60242;SHT30;46103;52.076;113.488;2024-02-26T18:04:29;-19.73;54.16
60242;SHT30;46103;52.076;113.488;2024-02-26T18:07:33;-19.71;54.08
60242;SHT30;46103;52.076;113.488;2024-02-26T18:10:37;-19.69;54.20
60242;SHT30;46103;52.076;113.488;2024-02-26T18:13:41;-19.69;54.22
60242;SHT30;46103;52.076;113.488;2024-02-26T18:16:48;-19.76;54.05
60242;SHT30;46103;52.076;113.488;2024-02-26T18:19:51;-19.76;54.06
60242;SHT30;46103;52.076;113.488;2024-02-26T18:22:56;-19.66;54.17
60242;SHT30;46103;52.076;113.488;2024-02-26T18:25:59;-19.66;54.16
60242;SHT30;46103;52.076;113.488;2024-02-26T18:29:03;-19.56;54.04
60242;SHT30;46103;52.076;113.488;2024-02-26T18:32:08;-19.59;53.81
60242;SHT30;46103;52.076;113.488;2024-02-26T18:35:12;-19.56;53.75
60242;SHT30;46103;52.076;113.488;2024-02-26T18:38:16;-19.53;53.81
60242;SHT30;46103;52.076;113.488;2024-02-26T18:41:21;-19.53;53.77
60242;SHT30;46103;52.076;113.488;2024-02-26T18:44:25;-19.59;54.19
60242;SHT30;46103;52.076;113.488;2024-02-26T18:47:30;-19.65;54.12
60242;SHT30;46103;52.076;113.488;2024-02-26T18:50:34;-19.67;53.97
60242;SHT30;46103;52.076;113.488;2024-02-26T18:53:38;-19.70;54.17
60242;SHT30;46103;52.076;113.488;2024-02-26T18:56:44;-19.80;54.00
60242;SHT30;46103;52.076;113.488;2024-02-26T18:59:48;-19.93;54.17
60242;SHT30;46103;52.076;113.488;2024-02-26T19:02:52;-20.09;53.39
60242;SHT30;46103;52.076;113.488;2024-02-26T19:05:57;-20.21;53.10
60242;SHT30;46103;52.076;113.488;2024-02-26T19:09:01;-20.39;53.18
60242;SHT30;46103;52.076;113.488;2024-02-26T19:12:08;-20.49;53.36
60242;SHT30;46103;52.076;113.488;2024-02-26T19:15:12;-20.63;54.43
60242;SHT30;46103;52.076;113.488;2024-02-26T19:18:20;-20.64;56.22
60242;SHT30;46103;52.076;113.488;2024-02-26T19:21:24;-20.73;56.42
60242;SHT30;46103;52.076;113.488;2024-02-26T19:24:28;-20.74;56.03
60242;SHT30;46103;52.076;113.488;2024-02-26T19:27:32;-20.81;56.35
60242;SHT30;46103;52.076;113.488;2024-02-26T19:30:36;-20.88;56.41
60242;SHT30;46103;52.076;113.488;2024-02-26T19:33:39;-20.91;56.64
60242;SHT30;46103;52.076;113.488;2024-02-26T19:36:43;-20.98;56.62
60242;SHT30;46103;52.076;113.488;2024-02-26T19:39:47;-21.02;56.88
60242;SHT30;46103;52.076;113.488;2024-02-26T19:42:51;-21.02;56.22
60242;SHT30;46103;52.076;113.488;2024-02-26T19:45:54;-21.15;55.97
60242;SHT30;46103;52.076;113.488;2024-02-26T19:48:58;-21.16;55.64
60242;SHT30;46103;52.076;113.488;2024-02-26T19:52:03;-21.30;55.62
60242;SHT30;46103;52.076;113.488;2024-02-26T19:55:07;-21.37;56.20
60242;SHT30;46103;52.076;113.488;2024-02-26T19:58:11;-21.36;56.09
60242;SHT30;46103;52.076;113.488;2024-02-26T20:01:16;-21.47;55.42
60242;SHT30;46103;52.076;113.488;2024-02-26T20:04:19;-21.49;55.24
60242;SHT30;46103;52.076;113.488;2024-02-26T20:07:23;-21.46;55.49
60242;SHT30;46103;52.076;113.488;2024-02-26T20:10:27;-21.42;56.13
60242;SHT30;46103;52.076;113.488;2024-02-26T20:13:31;-21.37;57.39
60242;SHT30;46103;52.076;113.488;2024-02-26T20:16:35;-21.34;57.26
60242;SHT30;46103;52.076;113.488;2024-02-26T20:19:39;-21.23;57.75
60242;SHT30;46103;52.076;113.488;2024-02-26T20:22:45;-21.25;58.15
60242;SHT30;46103;52.076;113.488;2024-02-26T20:25:49;-21.19;58.77
60242;SHT30;46103;52.076;113.488;2024-02-26T20:28:53;-21.22;58.12
60242;SHT30;46103;52.076;113.488;2024-02-26T20:31:57;-21.23;57.85
60242;SHT30;46103;52.076;113.488;2024-02-26T20:35:01;-21.23;57.70
60242;SHT30;46103;52.076;113.488;2024-02-26T20:38:06;-21.29;57.69
60242;SHT30;46103;52.076;113.488;2024-02-26T20:41:11;-21.37;57.51
60242;SHT30;46103;52.076;113.488;2024-02-26T20:44:15;-21.39;57.57
60242;SHT30;46103;52.076;113.488;2024-02-26T20:47:18;-21.49;57.32
60242;SHT30;46103;52.076;113.488;2024-02-26T20:50:22;-21.61;56.76
60242;SHT30;46103;52.076;113.488;2024-02-26T20:53:26;-21.63;56.80
60242;SHT30;46103;52.076;113.488;2024-02-26T20:56:30;-21.63;57.46
60242;SHT30;46103;52.076;113.488;2024-02-26T20:59:33;-21.77;57.96
60242;SHT30;46103;52.076;113.488;2024-02-26T21:02:37;-21.79;58.51
60242;SHT30;46103;52.076;113.488;2024-02-26T21:05:42;-21.72;58.78
60242;SHT30;46103;52.076;113.488;2024-02-26T21:08:46;-21.71;58.53
60242;SHT30;46103;52.076;113.488;2024-02-26T21:11:50;-21.79;58.23
60242;SHT30;46103;52.076;113.488;2024-02-26T21:14:57;-21.81;57.45
60242;SHT30;46103;52.076;113.488;2024-02-26T21:18:01;-21.98;56.95
60242;SHT30;46103;52.076;113.488;2024-02-26T21:21:05;-22.09;57.30
60242;SHT30;46103;52.076;113.488;2024-02-26T21:24:09;-22.22;56.97
60242;SHT30;46103;52.076;113.488;2024-02-26T21:27:13;-22.32;56.43
60242;SHT30;46103;52.076;113.488;2024-02-26T21:30:17;-22.46;56.63
60242;SHT30;46103;52.076;113.488;2024-02-26T21:33:21;-22.51;57.42
60242;SHT30;46103;52.076;113.488;2024-02-26T21:36:25;-22.53;57.38
60242;SHT30;46103;52.076;113.488;2024-02-26T21:39:28;-22.58;56.84
60242;SHT30;46103;52.076;113.488;2024-02-26T21:42:32;-22.74;56.91
60242;SHT30;46103;52.076;113.488;2024-02-26T21:45:36;-22.77;56.19
60242;SHT30;46103;52.076;113.488;2024-02-26T21:48:40;-22.87;55.06
60242;SHT30;46103;52.076;113.488;2024-02-26T21:51:45;-22.91;55.79
60242;SHT30;46103;52.076;113.488;2024-02-26T21:54:50;-22.98;57.04
60242;SHT30;46103;52.076;113.488;2024-02-26T21:57:54;-23.00;57.23
60242;SHT30;46103;52.076;113.488;2024-02-26T22:00:58;-23.00;57.29
60242;SHT30;46103;52.076;113.488;2024-02-26T22:04:02;-22.95;57.82
60242;SHT30;46103;52.076;113.488;2024-02-26T22:07:06;-22.91;59.65
60242;SHT30;46103;52.076;113.488;2024-02-26T22:10:10;-22.87;59.81
60242;SHT30;46103;52.076;113.488;2024-02-26T22:13:13;-22.87;60.51
60242;SHT30;46103;52.076;113.488;2024-02-26T22:16:17;-22.74;60.92
60242;SHT30;46103;52.076;113.488;2024-02-26T22:19:21;-22.71;60.69
60242;SHT30;46103;52.076;113.488;2024-02-26T22:22:26;-22.75;61.07
60242;SHT30;46103;52.076;113.488;2024-02-26T22:25:29;-22.72;60.89
60242;SHT30;46103;52.076;113.488;2024-02-26T22:28:33;-22.78;61.15
60242;SHT30;46103;52.076;113.488;2024-02-26T22:31:37;-22.75;61.15
60242;SHT30;46103;52.076;113.488;2024-02-26T22:34:41;-22.72;60.88
60242;SHT30;46103;52.076;113.488;2024-02-26T22:37:44;-22.67;60.86
60242;SHT30;46103;52.076;113.488;2024-02-26T22:40:48;-22.69;60.89
60242;SHT30;46103;52.076;113.488;2024-02-26T22:43:52;-22.64;60.70
60242;SHT30;46103;52.076;113.488;2024-02-26T22:46:56;-22.67;60.14
60242;SHT30;46103;52.076;113.488;2024-02-26T22:50:00;-22.75;58.67
60242;SHT30;46103;52.076;113.488;2024-02-26T22:53:17;-22.88;57.59
60242;SHT30;46103;52.076;113.488;2024-02-26T22:56:20;-22.98;56.43
60242;SHT30;46103;52.076;113.488;2024-02-26T22:59:24;-22.99;55.89
60242;SHT30;46103;52.076;113.488;2024-02-26T23:02:29;-23.16;55.30
60242;SHT30;46103;52.076;113.488;2024-02-26T23:05:32;-23.26;55.25
60242;SHT30;46103;52.076;113.488;2024-02-26T23:08:38;-23.27;55.38
60242;SHT30;46103;52.076;113.488;2024-02-26T23:11:47;-23.36;55.04
60242;SHT30;46103;52.076;113.488;2024-02-26T23:25:38;-23.54;55.54
60242;SHT30;46103;52.076;113.488;2024-02-26T23:28:41;-23.54;56.59
60242;SHT30;46103;52.076;113.488;2024-02-26T23:31:45;-23.38;59.08
60242;SHT30;46103;52.076;113.488;2024-02-26T23:34:49;-23.40;58.68
60242;SHT30;46103;52.076;113.488;2024-02-26T23:37:53;-23.47;56.99
60242;SHT30;46103;52.076;113.488;2024-02-26T23:41:06;-23.43;55.89
60242;SHT30;46103;52.076;113.488;2024-02-26T23:44:48;-23.41;54.87
